sensor_id;sensor_type;location;lat;lon;timestamp;temperature;humidity
40630;DHT22;26329;40.388;-3.710;2024-01-30T00:07:25;10.90;74.90
40630;DHT22;26329;40.388;-3.710;2024-01-30T00:17:26;10.80;75.20
40630;DHT22;26329;40.388;-3.710;2024-01-30T00:27:27;10.80;75.80
40630;DHT22;26329;40.388;-3.710;2024-01-30T00:37:29;10.80;75.80
40630;DHT22;26329;40.388;-3.710;2024-01-30T00:47:30;10.70;75.80
40630;DHT22;26329;40.388;-3.710;2024-01-30T00:57:31;10.60;75.80
40630;DHT22;26329;40.388;-3.710;2024-01-30T01:07:32;10.60;75.60
40630;DHT22;26329;40.388;-3.710;2024-01-30T01:17:33;10.50;75.70
40630;DHT22;26329;40.388;-3.710;2024-01-30T01:27:34;10.40;75.90
40630;DHT22;26329;40.388;-3.710;2024-01-30T01:37:39;10.40;75.90
40630;DHT22;26329;40.388;-3.710;2024-01-30T01:47:40;10.30;76.00
40630;DHT22;26329;40.388;-3.710;2024-01-30T01:57:41;10.20;76.20
40630;DHT22;26329;40.388;-3.710;2024-01-30T02:07:43;10.10;76.40
40630;DHT22;26329;40.388;-3.710;2024-01-30T02:17:44;10.10;76.00
40630;DHT22;26329;40.388;-3.710;2024-01-30T02:27:45;9.70;75.80
40630;DHT22;26329;40.388;-3.710;2024-01-30T02:37:46;9.40;75.90
40630;DHT22;26329;40.388;-3.710;2024-01-30T02:47:47;9.20;76.50
40630;DHT22;26329;40.388;-3.710;2024-01-30T02:57:50;9.00;77.00
40630;DHT22;26329;40.388;-3.710;2024-01-30T03:07:51;8.80;77.30
40630;DHT22;26329;40.388;-3.710;2024-01-30T03:17:53;8.70;77.50
40630;DHT22;26329;40.388;-3.710;2024-01-30T03:27:54;8.50;77.80
40630;DHT22;26329;40.388;-3.710;2024-01-30T03:37:55;8.40;78.30
40630;DHT22;26329;40.388;-3.710;2024-01-30T03:47:56;8.30;79.00
40630;DHT22;26329;40.388;-3.710;2024-01-30T03:57:59;8.30;79.00
40630;DHT22;26329;40.388;-3.710;2024-01-30T04:08:00;8.10;79.20
40630;DHT22;26329;40.388;-3.710;2024-01-30T04:18:01;7.90;79.50
40630;DHT22;26329;40.388;-3.710;2024-01-30T04:28:02;7.90;79.50
40630;DHT22;26329;40.388;-3.710;2024-01-30T04:38:03;7.80;79.60
40630;DHT22;26329;40.388;-3.710;2024-01-30T04:48:05;7.60;80.10
40630;DHT22;26329;40.388;-3.710;2024-01-30T04:58:08;7.50;80.30
40630;DHT22;26329;40.388;-3.710;2024-01-30T05:08:12;7.40;80.30
40630;DHT22;26329;40.388;-3.710;2024-01-30T05:18:14;7.40;80.20
40630;DHT22;26329;40.388;-3.710;2024-01-30T05:28:17;7.30;80.50
40630;DHT22;26329;40.388;-3.710;2024-01-30T05:38:20;7.20;80.70
40630;DHT22;26329;40.388;-3.710;2024-01-30T05:48:22;7.30;80.80
40630;DHT22;26329;40.388;-3.710;2024-01-30T05:58:25;7.30;80.80
40630;DHT22;26329;40.388;-3.710;2024-01-30T06:08:27;7.20;80.50
40630;DHT22;26329;40.388;-3.710;2024-01-30T06:18:28;7.10;80.50
40630;DHT22;26329;40.388;-3.710;2024-01-30T06:28:31;7.10;80.60
40630;DHT22;26329;40.388;-3.710;2024-01-30T06:38:32;7.00;80.60
40630;DHT22;26329;40.388;-3.710;2024-01-30T06:48:35;7.00;80.70
40630;DHT22;26329;40.388;-3.710;2024-01-30T06:58:36;7.00;80.70
40630;DHT22;26329;40.388;-3.710;2024-01-30T07:08:37;7.10;80.80
40630;DHT22;26329;40.388;-3.710;2024-01-30T07:18:42;7.10;80.90
40630;DHT22;26329;40.388;-3.710;2024-01-30T07:28:45;7.00;80.80
40630;DHT22;26329;40.388;-3.710;2024-01-30T07:38:48;7.10;80.60
40630;DHT22;26329;40.388;-3.710;2024-01-30T07:48:51;7.10;80.60
40630;DHT22;26329;40.388;-3.710;2024-01-30T07:58:54;7.00;80.40
40630;DHT22;26329;40.388;-3.710;2024-01-30T08:08:56;7.10;80.40
40630;DHT22;26329;40.388;-3.710;2024-01-30T08:19:02;7.20;80.30
40630;DHT22;26329;40.388;-3.710;2024-01-30T08:29:05;7.30;80.40
40630;DHT22;26329;40.388;-3.710;2024-01-30T08:39:07;7.50;80.30
40630;DHT22;26329;40.388;-3.710;2024-01-30T08:49:12;7.70;80.00
40630;DHT22;26329;40.388;-3.710;2024-01-30T08:59:14;7.90;79.50
40630;DHT22;26329;40.388;-3.710;2024-01-30T09:09:16;8.00;79.00
40630;DHT22;26329;40.388;-3.710;2024-01-30T09:19:20;8.30;78.70
40630;DHT22;26329;40.388;-3.710;2024-01-30T09:29:22;8.50;78.20
40630;DHT22;26329;40.388;-3.710;2024-01-30T09:39:25;8.90;77.90
40630;DHT22;26329;40.388;-3.710;2024-01-30T09:49:27;9.20;77.60
40630;DHT22;26329;40.388;-3.710;2024-01-30T09:59:30;9.50;77.20
40630;DHT22;26329;40.388;-3.710;2024-01-30T10:09:34;9.90;76.60
40630;DHT22;26329;40.388;-3.710;2024-01-30T10:19:40;10.40;78.20
40630;DHT22;26329;40.388;-3.710;2024-01-30T10:29:42;11.40;71.40
40630;DHT22;26329;40.388;-3.710;2024-01-30T10:39:46;12.50;72.60
40630;DHT22;26329;40.388;-3.710;2024-01-30T10:49:47;13.30;66.90
40630;DHT22;26329;40.388;-3.710;2024-01-30T10:59:51;12.40;67.70
40630;DHT22;26329;40.388;-3.710;2024-01-30T11:19:59;13.60;66.10
40630;DHT22;26329;40.388;-3.710;2024-01-30T11:30:03;13.20;66.40
40630;DHT22;26329;40.388;-3.710;2024-01-30T11:40:08;14.10;65.40
40630;DHT22;26329;40.388;-3.710;2024-01-30T11:50:10;14.30;62.80
40630;DHT22;26329;40.388;-3.710;2024-01-30T12:00:16;13.60;63.80
40630;DHT22;26329;40.388;-3.710;2024-01-30T12:10:18;13.30;65.40
40630;DHT22;26329;40.388;-3.710;2024-01-30T12:20:21;13.60;66.90
40630;DHT22;26329;40.388;-3.710;2024-01-30T12:30:22;13.80;64.80
40630;DHT22;26329;40.388;-3.710;2024-01-30T12:40:25;13.70;63.70
40630;DHT22;26329;40.388;-3.710;2024-01-30T12:50:27;13.50;65.00
40630;DHT22;26329;40.388;-3.710;2024-01-30T13:00:30;13.40;64.50
40630;DHT22;26329;40.388;-3.710;2024-01-30T13:10:33;13.50;65.30
40630;DHT22;26329;40.388;-3.710;2024-01-30T13:20:35;13.90;63.50
40630;DHT22;26329;40.388;-3.710;2024-01-30T13:30:38;13.70;63.90
40630;DHT22;26329;40.388;-3.710;2024-01-30T13:40:43;13.80;64.00
40630;DHT22;26329;40.388;-3.710;2024-01-30T13:50:46;13.90;63.50
40630;DHT22;26329;40.388;-3.710;2024-01-30T14:00:49;13.90;63.70
40630;DHT22;26329;40.388;-3.710;2024-01-30T14:10:51;13.90;63.40
40630;DHT22;26329;40.388;-3.710;2024-01-30T14:20:53;13.80;63.40
40630;DHT22;26329;40.388;-3.710;2024-01-30T14:30:56;13.90;63.30
40630;DHT22;26329;40.388;-3.710;2024-01-30T14:40:59;13.90;63.70
40630;DHT22;26329;40.388;-3.710;2024-01-30T14:51:00;13.90;63.90
40630;DHT22;26329;40.388;-3.710;2024-01-30T15:01:03;14.00;64.10
40630;DHT22;26329;40.388;-3.710;2024-01-30T15:11:06;14.00;64.00
40630;DHT22;26329;40.388;-3.710;2024-01-30T15:21:09;13.90;64.00
40630;DHT22;26329;40.388;-3.710;2024-01-30T15:31:10;14.00;64.50
40630;DHT22;26329;40.388;-3.710;2024-01-30T15:41:13;14.00;64.60
40630;DHT22;26329;40.388;-3.710;2024-01-30T15:51:14;14.00;64.70
40630;DHT22;26329;40.388;-3.710;2024-01-30T16:01:17;13.90;65.10
40630;DHT22;26329;40.388;-3.710;2024-01-30T16:11:20;13.80;65.60
40630;DHT22;26329;40.388;-3.710;2024-01-30T16:21:23;13.80;66.00
40630;DHT22;26329;40.388;-3.710;2024-01-30T16:31:26;13.70;66.30
40630;DHT22;26329;40.388;-3.710;2024-01-30T16:41:27;13.70;66.10
40630;DHT22;26329;40.388;-3.710;2024-01-30T16:51:29;13.80;67.10
40630;DHT22;26329;40.388;-3.710;2024-01-30T17:01:32;13.70;66.70
40630;DHT22;26329;40.388;-3.710;2024-01-30T17:11:33;13.50;67.30
40630;DHT22;26329;40.388;-3.710;2024-01-30T17:21:34;13.40;67.50
40630;DHT22;26329;40.388;-3.710;2024-01-30T17:31:39;13.60;68.50
40630;DHT22;26329;40.388;-3.710;2024-01-30T17:41:41;13.60;69.10
40630;DHT22;26329;40.388;-3.710;2024-01-30T17:51:44;13.20;69.20
40630;DHT22;26329;40.388;-3.710;2024-01-30T18:01:48;12.90;69.90
40630;DHT22;26329;40.388;-3.710;2024-01-30T18:11:50;12.80;70.50
40630;DHT22;26329;40.388;-3.710;2024-01-30T18:21:52;12.80;70.40
40630;DHT22;26329;40.388;-3.710;2024-01-30T18:31:55;12.70;70.90
40630;DHT22;26329;40.388;-3.710;2024-01-30T18:41:58;12.60;71.80
40630;DHT22;26329;40.388;-3.710;2024-01-30T18:52:01;13.40;71.70
40630;DHT22;26329;40.388;-3.710;2024-01-30T19:02:06;13.10;73.00
40630;DHT22;26329;40.388;-3.710;2024-01-30T19:12:09;12.60;72.90
40630;DHT22;26329;40.388;-3.710;2024-01-30T19:22:10;12.40;73.30
40630;DHT22;26329;40.388;-3.710;2024-01-30T19:32:12;12.30;73.60
40630;DHT22;26329;40.388;-3.710;2024-01-30T19:42:16;12.10;73.80
40630;DHT22;26329;40.388;-3.710;2024-01-30T19:52:19;12.00;74.20
40630;DHT22;26329;40.388;-3.710;2024-01-30T20:02:22;11.90;74.60
40630;DHT22;26329;40.388;-3.710;2024-01-30T20:12:25;11.90;74.80
40630;DHT22;26329;40.388;-3.710;2024-01-30T20:22:26;11.80;75.10
40630;DHT22;26329;40.388;-3.710;2024-01-30T20:32:29;11.60;75.50
40630;DHT22;26329;40.388;-3.710;2024-01-30T20:42:33;11.50;76.20
40630;DHT22;26329;40.388;-3.710;2024-01-30T20:52:36;11.40;76.40
40630;DHT22;26329;40.388;-3.710;2024-01-30T21:02:37;11.20;76.40
40630;DHT22;26329;40.388;-3.710;2024-01-30T21:12:38;11.10;76.80
40630;DHT22;26329;40.388;-3.710;2024-01-30T21:22:39;10.90;76.80
40630;DHT22;26329;40.388;-3.710;2024-01-30T21:32:40;10.80;77.00
40630;DHT22;26329;40.388;-3.710;2024-01-30T21:42:41;10.60;77.30
40630;DHT22;26329;40.388;-3.710;2024-01-30T21:52:42;10.40;77.50
40630;DHT22;26329;40.388;-3.710;2024-01-30T22:02:43;10.20;77.70
40630;DHT22;26329;40.388;-3.710;2024-01-30T22:12:44;10.00;77.90
40630;DHT22;26329;40.388;-3.710;2024-01-30T22:22:45;9.90;78.10
40630;DHT22;26329;40.388;-3.710;2024-01-30T22:32:46;9.80;78.20
40630;DHT22;26329;40.388;-3.710;2024-01-30T22:42:47;9.70;78.40
40630;DHT22;26329;40.388;-3.710;2024-01-30T22:52:48;9.50;78.60
40630;DHT22;26329;40.388;-3.710;2024-01-30T23:02:52;9.40;79.10
40630;DHT22;26329;40.388;-3.710;2024-01-30T23:12:54;9.30;79.20
40630;DHT22;26329;40.388;-3.710;2024-01-30T23:22:55;9.20;79.30
40630;DHT22;26329;40.388;-3.710;2024-01-30T23:32:56;9.10;79.50
40630;DHT22;26329;40.388;-3.710;2024-01-30T23:42:57;9.00;79.50
40630;DHT22;26329;40.388;-3.710;2024-01-30T23:52:58;9.00;79.50
